Time;durP1;ratioP1;P1;durP2;ratioP2;P2;SDS_P1;SDS_P2;PMS_P1;PMS_P2;Temp;Humidity;BMP_temperature;BMP_pressure;BME280_temperature;BME280_humidity;BME280_pressure;Samples;Min_cycle;Max_cycle;Signal;HPM_P1;HPM_P2
2023/04/27 00:00:28;;;;;;;;;;;;;;;;;;7595379;23;19909;-78
2023/04/27 00:03:30;;;;;;;;;;;;;;;;;;7597135;23;19936;-78
2023/04/27 00:06:31;;;;;;;;;;;;;;;;;;7597111;23;19935;-78
2023/04/27 00:09:31;;;;;;;;;;;;;;;;;;7597310;23;19933;-78
2023/04/27 00:12:32;;;;;;;;;;;;;;;;;;7596692;23;20417;-78
2023/04/27 00:15:32;;;;;;;;;;;;;;;;;;7597387;23;19967;-78
2023/04/27 00:18:32;;;;;;;;;;;;;;;;;;7597062;23;19901;-79
2023/04/27 00:21:32;;;;;;;;;;;;;;;;;;7608251;23;19912;-84
2023/04/27 00:24:32;;;;;;;;;;;;;;;;;;7619855;23;20325;-83
2023/04/27 00:27:33;;;;;;;;;;;;;;;;;;7594682;23;19901;-84
2023/04/27 00:30:33;;;;;;;;;;;;;;;;;;7603177;23;19901;-84
2023/04/27 00:33:33;;;;;;;;;;;;;;;;;;7598173;23;19932;-84
2023/04/27 00:36:33;;;;;;;;;;;;;;;;;;7597106;23;19935;-85
2023/04/27 00:39:34;;;;;;;;;;;;;;;;;;7595164;23;20218;-77
2023/04/27 00:42:35;;;;;;;;;;;;;;;;;;7596212;23;19939;-78
2023/04/27 00:45:35;;;;;;;;;;;;;;;;;;7597673;23;19901;-78
2023/04/27 00:48:35;;;;;;;;;;;;;;;;;;7597508;23;19929;-78
2023/04/27 00:51:35;;;;;;;;;;;;;;;;;;7598832;23;20309;-78
2023/04/27 00:54:36;;;;;;;;;;;;;;;;;;7598215;23;19904;-79
2023/04/27 00:57:36;;;;;;;;;;;;;;;;;;7596767;23;19909;-78
2023/04/27 01:00:36;;;;;;;;;;;;;;;;;;7570172;23;19909;-79
2023/04/27 01:03:36;;;;;;;;;;;;;;;;;;7597333;23;19927;-79
2023/04/27 01:06:38;;;;;;;;;;;;;;;;;;7597671;23;20211;-79
2023/04/27 01:09:38;;;;;;;;;;;;;;;;;;7596670;23;19909;-78
2023/04/27 01:12:38;;;;;;;;;;;;;;;;;;7597250;23;19917;-78
2023/04/27 01:15:38;;;;;;;;;;;;;;;;;;7596890;23;19905;-78
2023/04/27 01:18:39;;;;;;;;;;;;;;;;;;7596356;23;20320;-79
2023/04/27 01:21:39;;;;;;;;;;;;;;;;;;7598787;23;20305;-79
2023/04/27 01:24:40;;;;;;;;;;;;;;;;;;7596709;23;19979;-78
2023/04/27 01:27:40;;;;;;;;;;;;;;;;;;7596922;23;19908;-79
2023/04/27 01:30:40;;;;;;;;;;;;;;;;;;7597491;23;19952;-82
2023/04/27 01:33:40;;;;;;;;;;;;;;;;;;7599264;23;19905;-81
2023/04/27 01:36:40;;;;;;;;;;;;;;;;;;7597236;23;20272;-82
2023/04/27 01:39:40;;;;;;;;;;;;;;;;;;7597090;23;19901;-82
2023/04/27 01:42:40;;;;;;;;;;;;;;;;;;7596948;23;19905;-82
2023/04/27 01:45:41;;;;;;;;;;;;;;;;;;7597143;23;19904;-81
2023/04/27 01:48:41;;;;;;;;;;;;;;;;;;7570884;23;19931;-82
2023/04/27 01:51:41;;;;;;;;;;;;;;;;;;7569846;23;19933;-82
2023/04/27 01:54:41;;;;;;;;;;;;;;;;;;7596904;23;19947;-82
2023/04/27 01:57:42;;;;;;;;;;;;;;;;;;7596861;23;19939;-82
2023/04/27 02:00:42;;;;;;;;;;;;;;;;;;7596119;23;19916;-81
2023/04/27 02:03:42;;;;;;;;;;;;;;;;;;7596668;23;19904;-81
2023/04/27 02:06:42;;;;;;;;;;;;;;;;;;7596250;23;19989;-80
2023/04/27 02:09:42;;;;;;;;;;;;;;;;;;7596548;23;19905;-80
2023/04/27 02:12:42;;;;;;;;;;;;;;;;;;7569500;23;19924;-80
2023/04/27 02:15:42;;;;;;;;;;;;;;;;;;7595402;23;20348;-80
2023/04/27 02:18:43;;;;;;;;;;;;;;;;;;7596332;23;19912;-80
2023/04/27 02:21:43;;;;;;;;;;;;;;;;;;7596689;23;19937;-81
2023/04/27 02:24:43;;;;;;;;;;;;;;;;;;7569643;23;19905;-80
2023/04/27 02:27:43;;;;;;;;;;;;;;;;;;7594955;23;19900;-80
2023/04/27 02:30:43;;;;;;;;;;;;;;;;;;7596240;23;19987;-80
2023/04/27 02:33:44;;;;;;;;;;;;;;;;;;7596064;23;19975;-80
2023/04/27 02:36:44;;;;;;;;;;;;;;;;;;7595596;23;19909;-80
2023/04/27 02:39:44;;;;;;;;;;;;;;;;;;7595966;23;19907;-80
2023/04/27 02:42:44;;;;;;;;;;;;;;;;;;7595153;23;19931;-80
2023/04/27 02:45:45;;;;;;;;;;;;;;;;;;7596343;23;19904;-80
2023/04/27 02:48:45;;;;;;;;;;;;;;;;;;7569883;23;19905;-80
2023/04/27 02:51:45;;;;;;;;;;;;;;;;;;7595843;23;19900;-80
2023/04/27 02:54:45;;;;;;;;;;;;;;;;;;7595541;23;19904;-79
2023/04/27 02:57:45;;;;;;;;;;;;;;;;;;7595547;23;19909;-79
2023/04/27 03:00:45;;;;;;;;;;;;;;;;;;7569341;23;19901;-79
2023/04/27 03:03:48;;;;;;;;;;;;;;;;;;7596996;23;19996;-80
2023/04/27 03:06:48;;;;;;;;;;;;;;;;;;7595722;23;19905;-79
2023/04/27 03:09:48;;;;;;;;;;;;;;;;;;7570588;23;19908;-79
2023/04/27 03:12:48;;;;;;;;;;;;;;;;;;7595907;23;19952;-79
2023/04/27 03:15:48;;;;;;;;;;;;;;;;;;7595730;23;20335;-79
2023/04/27 03:18:49;;;;;;;;;;;;;;;;;;7595313;23;19901;-79
2023/04/27 03:21:49;;;;;;;;;;;;;;;;;;7569994;23;19919;-79
2023/04/27 03:24:49;;;;;;;;;;;;;;;;;;7595728;23;19901;-78
2023/04/27 03:27:49;;;;;;;;;;;;;;;;;;7593890;23;20226;-79
2023/04/27 03:30:49;;;;;;;;;;;;;;;;;;7594479;23;19905;-79
2023/04/27 03:33:51;;;;;;;;;;;;;;;;;;7595456;23;20034;-79
2023/04/27 03:36:51;;;;;;;;;;;;;;;;;;7594874;23;19909;-79
2023/04/27 03:39:51;;;;;;;;;;;;;;;;;;7596705;23;19904;-78
2023/04/27 03:42:51;;;;;;;;;;;;;;;;;;7596681;23;19909;-78
2023/04/27 03:45:51;;;;;;;;;;;;;;;;;;7596576;23;19905;-79
2023/04/27 03:48:51;;;;;;;;;;;;;;;;;;7596826;23;20304;-79
2023/04/27 03:51:51;;;;;;;;;;;;;;;;;;7597967;23;19901;-78
2023/04/27 03:54:51;;;;;;;;;;;;;;;;;;7597500;23;19935;-78
2023/04/27 03:57:51;;;;;;;;;;;;;;;;;;7598014;23;20527;-78
2023/04/27 04:00:53;;;;;;;;;;;;;;;;;;7598159;23;19979;-78
2023/04/27 04:03:53;;;;;;;;;;;;;;;;;;7597463;23;20245;-78
2023/04/27 04:06:53;;;;;;;;;;;;;;;;;;7598070;23;20344;-78
2023/04/27 04:09:53;;;;;;;;;;;;;;;;;;7597550;23;19948;-78
2023/04/27 04:12:53;;;;;;;;;;;;;;;;;;7559534;23;20322;-78
2023/04/27 04:15:53;;;;;;;;;;;;;;;;;;7561326;23;19916;-78
2023/04/27 04:18:54;;;;;;;;;;;;;;;;;;7561493;23;19901;-78
2023/04/27 04:21:55;;;;;;;;;;;;;;;;;;7561303;23;20242;-78
2023/04/27 04:24:56;;;;;;;;;;;;;;;;;;7561983;23;20318;-78
2023/04/27 04:27:56;;;;;;;;;;;;;;;;;;7561685;23;19950;-78
2023/04/27 04:30:57;;;;;;;;;;;;;;;;;;7561351;23;19929;-78
2023/04/27 04:33:57;;;;;;;;;;;;;;;;;;7561527;23;19908;-78
2023/04/27 04:36:58;;;;;;;;;;;;;;;;;;7561532;23;19910;-78
2023/04/27 04:39:58;;;;;;;;;;;;;;;;;;7560916;23;19968;-78
2023/04/27 04:42:58;;;;;;;;;;;;;;;;;;7560336;23;19939;-79
2023/04/27 04:45:58;;;;;;;;;;;;;;;;;;7560721;23;19905;-79
2023/04/27 04:48:58;;;;;;;;;;;;;;;;;;7558206;23;19905;-78
2023/04/27 04:51:59;;;;;;;;;;;;;;;;;;7560719;23;19933;-79
2023/04/27 04:54:59;;;;;;;;;;;;;;;;;;7560755;23;19902;-79
2023/04/27 04:58:00;;;;;;;;;;;;;;;;;;7558703;23;19905;-79
2023/04/27 05:01:00;;;;;;;;;;;;;;;;;;7560156;23;19909;-85
2023/04/27 05:04:00;;;;;;;;;;;;;;;;;;7560483;23;19992;-81
2023/04/27 05:07:01;;;;;;;;;;;;;;;;;;7559627;23;19905;-82
2023/04/27 05:10:01;;;;;;;;;;;;;;;;;;7560264;23;19913;-83
2023/04/27 05:13:01;;;;;;;;;;;;;;;;;;7584291;23;20380;-82
2023/04/27 05:16:01;;;;;;;;;;;;;;;;;;7597021;23;19908;-81
2023/04/27 05:19:01;;;;;;;;;;;;;;;;;;7596520;23;19905;-81
2023/04/27 05:22:01;;;;;;;;;;;;;;;;;;7596159;23;20337;-82
2023/04/27 05:25:02;;;;;;;;;;;;;;;;;;7597121;23;19923;-83
2023/04/27 05:28:02;;;;;;;;;;;;;;;;;;7596187;23;19905;-83
2023/04/27 05:31:02;;;;;;;;;;;;;;;;;;7592887;23;19901;-81
2023/04/27 05:34:02;;;;;;;;;;;;;;;;;;7596004;23;19940;-80
2023/04/27 05:37:03;;;;;;;;;;;;;;;;;;7596682;23;19991;-81
2023/04/27 05:40:04;;;;;;;;;;;;;;;;;;7595912;23;19901;-81
2023/04/27 05:43:04;;;;;;;;;;;;;;;;;;7596300;23;19906;-81
2023/04/27 05:46:05;;;;;;;;;;;;;;;;;;7595078;23;19954;-82
2023/04/27 05:49:05;;;;;;;;;;;;;;;;;;7595097;23;20010;-83
2023/04/27 05:52:05;;;;;;;;;;;;;;;;;;7595564;23;19905;-82
2023/04/27 05:55:06;;;;;;;;;;;;;;;;;;7595246;23;19908;-82
2023/04/27 05:58:06;;;;;;;;;;;;;;;;;;7595934;23;19944;-83
2023/04/27 06:01:06;;;;;;;;;;;;;;;;;;7595933;23;19983;-83
2023/04/27 06:04:07;;;;;;;;;;;;;;;;;;7591731;23;19999;-81
2023/04/27 06:07:07;;;;;;;;;;;;;;;;;;7594592;23;20313;-82
2023/04/27 06:10:07;;;;;;;;;;;;;;;;;;7593528;23;19912;-76
2023/04/27 06:13:07;;;;;;;;;;;;;;;;;;7593179;23;19920;-76
2023/04/27 06:16:07;;;;;;;;;;;;;;;;;;7594005;23;20405;-77
2023/04/27 06:19:07;;;;;;;;;;;;;;;;;;7595292;23;19983;-77
2023/04/27 06:22:07;;;;;;;;;;;;;;;;;;7594410;23;19905;-77
2023/04/27 06:25:07;;;;;;;;;;;;;;;;;;7595929;23;19924;-77
2023/04/27 06:28:07;;;;;;;;;;;;;;;;;;7595642;23;19900;-77
2023/04/27 06:31:08;;;;;;;;;;;;;;;;;;7593623;23;19901;-80
2023/04/27 06:34:08;;;;;;;;;;;;;;;;;;7567479;23;19954;-83
2023/04/27 06:37:08;;;;;;;;;;;;;;;;;;7593845;23;19912;-83
2023/04/27 06:40:08;;;;;;;;;;;;;;;;;;7593991;23;19901;-83
2023/04/27 06:43:09;;;;;;;;;;;;;;;;;;7593581;23;19905;-83
2023/04/27 06:46:09;;;;;;;;;;;;;;;;;;7595285;23;19983;-82
2023/04/27 06:49:09;;;;;;;;;;;;;;;;;;7569449;23;19905;-81
2023/04/27 06:52:10;;;;;;;;;;;;;;;;;;7569804;23;19901;-81
2023/04/27 06:55:10;;;;;;;;;;;;;;;;;;7595125;23;20336;-83
2023/04/27 06:58:10;;;;;;;;;;;;;;;;;;7569752;23;19934;-82
2023/04/27 07:01:10;;;;;;;;;;;;;;;;;;7595513;23;20021;-82
2023/04/27 07:04:10;;;;;;;;;;;;;;;;;;7595974;23;19984;-82
2023/04/27 07:07:10;;;;;;;;;;;;;;;;;;7596162;23;19936;-82
2023/04/27 07:10:11;;;;;;;;;;;;;;;;;;7595579;23;20275;-81
2023/04/27 07:13:11;;;;;;;;;;;;;;;;;;7594568;23;19963;-82
2023/04/27 07:16:11;;;;;;;;;;;;;;;;;;7595586;23;19943;-81
2023/04/27 07:19:11;;;;;;;;;;;;;;;;;;7569487;23;19905;-81
2023/04/27 07:22:11;;;;;;;;;;;;;;;;;;7594622;23;20320;-81
2023/04/27 07:25:11;;;;;;;;;;;;;;;;;;7594314;23;19911;-81
2023/04/27 07:28:12;;;;;;;;;;;;;;;;;;7594947;23;19901;-81
2023/04/27 07:31:13;;;;;;;;;;;;;;;;;;7595178;23;19901;-81
2023/04/27 07:34:13;;;;;;;;;;;;;;;;;;7599825;23;20527;-81
2023/04/27 07:37:14;;;;;;;;;;;;;;;;;;7600481;23;19904;-81
2023/04/27 07:40:15;;;;;;;;;;;;;;;;;;7597143;23;19952;-80
2023/04/27 07:43:16;;;;;;;;;;;;;;;;;;7595281;23;20415;-81
2023/04/27 07:46:17;;;;;;;;;;;;;;;;;;7595247;23;19936;-81
2023/04/27 07:49:18;;;;;;;;;;;;;;;;;;7594363;23;19979;-80
2023/04/27 07:52:19;;;;;;;;;;;;;;;;;;7595551;23;19901;-81
2023/04/27 07:55:20;;;;;;;;;;;;;;;;;;7599820;23;19924;-80
2023/04/27 07:58:20;;;;;;;;;;;;;;;;;;7598797;23;19970;-81
2023/04/27 08:01:20;;;;;;;;;;;;;;;;;;7598804;23;20317;-82
2023/04/27 08:04:21;;;;;;;;;;;;;;;;;;7595340;23;20400;-81
2023/04/27 08:07:21;;;;;;;;;;;;;;;;;;7594793;23;20307;-81
2023/04/27 08:10:21;;;;;;;;;;;;;;;;;;7595025;23;19904;-81
2023/04/27 08:13:23;;;;;;;;;;;;;;;;;;7594326;23;20334;-81
2023/04/27 08:16:23;;;;;;;;;;;;;;;;;;7594167;23;19908;-81
2023/04/27 08:19:24;;;;;;;;;;;;;;;;;;7594861;23;19901;-82
2023/04/27 08:22:24;;;;;;;;;;;;;;;;;;7594388;23;19908;-82
2023/04/27 08:25:25;;;;;;;;;;;;;;;;;;7570654;23;19915;-82
2023/04/27 08:28:27;;;;;;;;;;;;;;;;;;7596470;23;20351;-81
2023/04/27 08:31:27;;;;;;;;;;;;;;;;;;7596832;23;20240;-82
2023/04/27 08:34:27;;;;;;;;;;;;;;;;;;7569737;23;20317;-82
2023/04/27 08:37:27;;;;;;;;;;;;;;;;;;7595701;23;19905;-82
2023/04/27 08:40:27;;;;;;;;;;;;;;;;;;7569853;23;19905;-82
2023/04/27 08:43:29;;;;;;;;;;;;;;;;;;7594532;23;19908;-82
2023/04/27 08:46:30;;;;;;;;;;;;;;;;;;7595440;23;19975;-82
2023/04/27 08:49:30;;;;;;;;;;;;;;;;;;7596517;23;19927;-82
2023/04/27 08:52:30;;;;;;;;;;;;;;;;;;7595882;23;20333;-82
2023/04/27 08:55:30;;;;;;;;;;;;;;;;;;7597262;23;19909;-82
2023/04/27 08:58:30;;;;;;;;;;;;;;;;;;7596589;23;20354;-82
2023/04/27 09:01:31;;;;;;;;;;;;;;;;;;7570490;23;19905;-82
2023/04/27 09:04:31;;;;;;;;;;;;;;;;;;7596362;23;19905;-81
2023/04/27 09:07:31;;;;;;;;;;;;;;;;;;7596581;23;19905;-82
2023/04/27 09:10:31;;;;;;;;;;;;;;;;;;7596037;23;19911;-82
2023/04/27 09:13:31;;;;;;;;;;;;;;;;;;7597552;23;19940;-82
2023/04/27 09:16:31;;;;;;;;;;;;;;;;;;7595810;23;20073;-82
2023/04/27 09:19:31;;;;;;;;;;;;;;;;;;7597621;23;19950;-80
2023/04/27 09:22:32;;;;;;;;;;;;;;;;;;7597100;23;19916;-81
2023/04/27 09:25:32;;;;;;;;;;;;;;;;;;7596988;23;20364;-82
2023/04/27 09:28:33;;;;;;;;;;;;;;;;;;7570249;23;19905;-81
2023/04/27 09:31:33;;;;;;;;;;;;;;;;;;7596574;23;20003;-80
2023/04/27 09:34:33;;;;;;;;;;;;;;;;;;7569976;23;19904;-80
2023/04/27 09:37:33;;;;;;;;;;;;;;;;;;7598580;23;19935;-80
2023/04/27 09:40:35;;;;;;;;;;;;;;;;;;7595767;23;20349;-80
2023/04/27 09:43:35;;;;;;;;;;;;;;;;;;7595113;23;19905;-81
2023/04/27 09:46:35;;;;;;;;;;;;;;;;;;7595067;23;19927;-81
2023/04/27 09:49:36;;;;;;;;;;;;;;;;;;7597108;23;19908;-81
2023/04/27 09:52:36;;;;;;;;;;;;;;;;;;7595601;23;20271;-80
2023/04/27 09:55:36;;;;;;;;;;;;;;;;;;7595479;23;19936;-81
2023/04/27 09:58:36;;;;;;;;;;;;;;;;;;7596986;23;19905;-81
2023/04/27 10:01:36;;;;;;;;;;;;;;;;;;7595321;23;19912;-81
2023/04/27 10:04:36;;;;;;;;;;;;;;;;;;7595750;23;19932;-81
2023/04/27 10:07:36;;;;;;;;;;;;;;;;;;7595960;23;19909;-80
2023/04/27 10:10:36;;;;;;;;;;;;;;;;;;7595611;23;19905;-80
2023/04/27 10:13:36;;;;;;;;;;;;;;;;;;7595683;23;19923;-81
2023/04/27 10:16:38;;;;;;;;;;;;;;;;;;7596343;23;19917;-81
2023/04/27 10:19:38;;;;;;;;;;;;;;;;;;7594484;23;19905;-81
2023/04/27 10:22:39;;;;;;;;;;;;;;;;;;7595749;23;19912;-81
2023/04/27 10:25:39;;;;;;;;;;;;;;;;;;7596236;23;19901;-81
2023/04/27 10:28:40;;;;;;;;;;;;;;;;;;7595574;23;20230;-81
2023/04/27 10:31:40;;;;;;;;;;;;;;;;;;7595534;23;19901;-81
2023/04/27 10:34:44;;;;;;;;;;;;;;;;;;7595998;23;19904;-81
2023/04/27 10:37:46;;;;;;;;;;;;;;;;;;7595695;23;20275;-81
2023/04/27 10:40:46;;;;;;;;;;;;;;;;;;7595270;23;20325;-81
2023/04/27 10:43:47;;;;;;;;;;;;;;;;;;7597526;23;19905;-80
2023/04/27 10:46:47;;;;;;;;;;;;;;;;;;7593767;23;19912;-80
2023/04/27 10:49:47;;;;;;;;;;;;;;;;;;7594442;23;19983;-81
2023/04/27 10:52:47;;;;;;;;;;;;;;;;;;7596601;23;19905;-81
2023/04/27 10:55:47;;;;;;;;;;;;;;;;;;7570834;23;19901;-81
2023/04/27 10:58:48;;;;;;;;;;;;;;;;;;7570362;23;19901;-81
2023/04/27 11:01:48;;;;;;;;;;;;;;;;;;7569277;23;19986;-81
2023/04/27 11:04:49;;;;;;;;;;;;;;;;;;7596171;23;19905;-80
2023/04/27 11:07:49;;;;;;;;;;;;;;;;;;7594798;23;19905;-80
2023/04/27 11:10:50;;;;;;;;;;;;;;;;;;7594720;23;19955;-77
2023/04/27 11:13:51;;;;;;;;;;;;;;;;;;7592973;23;20226;-77
2023/04/27 11:16:51;;;;;;;;;;;;;;;;;;7594389;23;20062;-77
2023/04/27 11:19:52;;;;;;;;;;;;;;;;;;7594193;23;19931;-77
2023/04/27 11:22:52;;;;;;;;;;;;;;;;;;7592328;23;19905;-77
2023/04/27 11:25:52;;;;;;;;;;;;;;;;;;7594560;23;19905;-77
2023/04/27 11:28:52;;;;;;;;;;;;;;;;;;7568574;23;20299;-77
2023/04/27 11:31:52;;;;;;;;;;;;;;;;;;7594837;23;19939;-77
2023/04/27 11:34:52;;;;;;;;;;;;;;;;;;7594703;23;20000;-77
2023/04/27 11:37:52;;;;;;;;;;;;;;;;;;7568728;23;20241;-77
2023/04/27 11:40:52;;;;;;;;;;;;;;;;;;7595055;23;20241;-77
2023/04/27 11:43:53;;;;;;;;;;;;;;;;;;7594746;23;19905;-77
2023/04/27 11:46:53;;;;;;;;;;;;;;;;;;7594589;23;19912;-77
2023/04/27 11:49:55;;;;;;;;;;;;;;;;;;7568891;23;20234;-77
2023/04/27 11:52:55;;;;;;;;;;;;;;;;;;7598684;23;20249;-77
2023/04/27 11:55:55;;;;;;;;;;;;;;;;;;7594080;23;19912;-77
2023/04/27 11:58:56;;;;;;;;;;;;;;;;;;7593451;23;19996;-76
2023/04/27 12:01:56;;;;;;;;;;;;;;;;;;7596702;23;20277;-76
2023/04/27 12:04:56;;;;;;;;;;;;;;;;;;7596032;23;19901;-75
2023/04/27 12:07:57;;;;;;;;;;;;;;;;;;7595962;23;19901;-76
2023/04/27 12:10:57;;;;;;;;;;;;;;;;;;7596223;23;19958;-76
2023/04/27 12:13:57;;;;;;;;;;;;;;;;;;7596189;23;19912;-76
2023/04/27 12:16:57;;;;;;;;;;;;;;;;;;7596172;23;19993;-76
2023/04/27 12:19:58;;;;;;;;;;;;;;;;;;7594366;23;19905;-76
2023/04/27 12:22:58;;;;;;;;;;;;;;;;;;7595705;23;19905;-76
2023/04/27 12:25:58;;;;;;;;;;;;;;;;;;7570519;23;20172;-76
2023/04/27 12:28:59;;;;;;;;;;;;;;;;;;7592582;23;19978;-76
2023/04/27 12:31:59;;;;;;;;;;;;;;;;;;7592843;23;19904;-76
2023/04/27 12:34:59;;;;;;;;;;;;;;;;;;7596098;23;19901;-76
2023/04/27 12:37:59;;;;;;;;;;;;;;;;;;7595150;23;19916;-76
2023/04/27 12:41:00;;;;;;;;;;;;;;;;;;7596068;23;19966;-76
2023/04/27 12:44:00;;;;;;;;;;;;;;;;;;7593582;23;19907;-76
2023/04/27 12:47:00;;;;;;;;;;;;;;;;;;7594221;23;20325;-76
2023/04/27 12:50:00;;;;;;;;;;;;;;;;;;7594025;23;19987;-77
2023/04/27 12:53:00;;;;;;;;;;;;;;;;;;7593770;23;19924;-76
2023/04/27 12:56:01;;;;;;;;;;;;;;;;;;7594332;23;20031;-76
2023/04/27 12:59:01;;;;;;;;;;;;;;;;;;7591173;23;19905;-77
2023/04/27 13:02:01;;;;;;;;;;;;;;;;;;7567230;23;20317;-77
2023/04/27 13:05:01;;;;;;;;;;;;;;;;;;7594518;23;19901;-77
2023/04/27 13:08:01;;;;;;;;;;;;;;;;;;7594165;23;19958;-76
2023/04/27 13:11:02;;;;;;;;;;;;;;;;;;7591346;23;19915;-76
2023/04/27 13:14:03;;;;;;;;;;;;;;;;;;7595274;23;19924;-76
2023/04/27 13:17:03;;;;;;;;;;;;;;;;;;7569220;23;19958;-77
2023/04/27 13:20:04;;;;;;;;;;;;;;;;;;7595975;23;20324;-77
2023/04/27 13:23:05;;;;;;;;;;;;;;;;;;7596146;23;19905;-77
2023/04/27 13:26:05;;;;;;;;;;;;;;;;;;7595466;23;19901;-77
2023/04/27 13:29:06;;;;;;;;;;;;;;;;;;7595605;23;19901;-77
2023/04/27 13:32:06;;;;;;;;;;;;;;;;;;7595711;23;19936;-80
2023/04/27 13:35:06;;;;;;;;;;;;;;;;;;7596042;23;19908;-80
2023/04/27 13:38:06;;;;;;;;;;;;;;;;;;7595768;23;19988;-80
2023/04/27 13:41:06;;;;;;;;;;;;;;;;;;7595754;23;19936;-80
2023/04/27 13:44:06;;;;;;;;;;;;;;;;;;7595718;23;19901;-81
2023/04/27 13:47:07;;;;;;;;;;;;;;;;;;7595441;23;19924;-81
2023/04/27 13:50:07;;;;;;;;;;;;;;;;;;7594711;23;20309;-80
2023/04/27 13:53:07;;;;;;;;;;;;;;;;;;7596043;23;19908;-81
2023/04/27 13:56:07;;;;;;;;;;;;;;;;;;7569609;23;20270;-80
2023/04/27 13:59:09;;;;;;;;;;;;;;;;;;7596162;23;19901;-81
2023/04/27 14:02:09;;;;;;;;;;;;;;;;;;7595959;23;19932;-81
2023/04/27 14:05:10;;;;;;;;;;;;;;;;;;7595950;23;20002;-81
2023/04/27 14:08:10;;;;;;;;;;;;;;;;;;7594786;23;20381;-80
2023/04/27 14:11:10;;;;;;;;;;;;;;;;;;7595832;23;19954;-81
2023/04/27 14:14:10;;;;;;;;;;;;;;;;;;7595563;23;19912;-81
2023/04/27 14:17:11;;;;;;;;;;;;;;;;;;7595824;23;19951;-80
2023/04/27 14:20:11;;;;;;;;;;;;;;;;;;7592645;23;19901;-77
2023/04/27 14:23:11;;;;;;;;;;;;;;;;;;7596370;23;20422;-77
2023/04/27 14:26:11;;;;;;;;;;;;;;;;;;7569827;23;19908;-77
2023/04/27 14:29:12;;;;;;;;;;;;;;;;;;7595636;23;19901;-77
2023/04/27 14:32:12;;;;;;;;;;;;;;;;;;7587637;23;19912;-78
2023/04/27 14:35:13;;;;;;;;;;;;;;;;;;7561846;23;19905;-77
2023/04/27 14:38:13;;;;;;;;;;;;;;;;;;7590916;23;19958;-77
2023/04/27 14:41:13;;;;;;;;;;;;;;;;;;7592460;23;19928;-77
2023/04/27 14:44:13;;;;;;;;;;;;;;;;;;7595068;23;19907;-77
2023/04/27 14:47:13;;;;;;;;;;;;;;;;;;7596098;23;19901;-77
2023/04/27 14:50:13;;;;;;;;;;;;;;;;;;7591911;23;20015;-77
2023/04/27 14:53:13;;;;;;;;;;;;;;;;;;7595450;23;19905;-77
2023/04/27 14:56:13;;;;;;;;;;;;;;;;;;7567249;23;19916;-77
2023/04/27 14:59:14;;;;;;;;;;;;;;;;;;7593961;23;19905;-77
2023/04/27 15:02:14;;;;;;;;;;;;;;;;;;7592970;23;19913;-77
2023/04/27 15:05:14;;;;;;;;;;;;;;;;;;7594232;23;19908;-77
2023/04/27 15:08:15;;;;;;;;;;;;;;;;;;7593739;23;19983;-77
2023/04/27 15:11:15;;;;;;;;;;;;;;;;;;7592826;23;20329;-77
2023/04/27 15:14:15;;;;;;;;;;;;;;;;;;7593070;23;19917;-77
2023/04/27 15:17:15;;;;;;;;;;;;;;;;;;7593483;23;20245;-77
2023/04/27 15:20:15;;;;;;;;;;;;;;;;;;7594726;23;19905;-77
2023/04/27 15:23:17;;;;;;;;;;;;;;;;;;7594996;23;20241;-77
2023/04/27 15:26:17;;;;;;;;;;;;;;;;;;7593423;23;19932;-77
2023/04/27 15:29:17;;;;;;;;;;;;;;;;;;7594118;23;19983;-80
2023/04/27 15:32:17;;;;;;;;;;;;;;;;;;7594989;23;19909;-77
2023/04/27 15:35:17;;;;;;;;;;;;;;;;;;7594875;23;19946;-77
2023/04/27 15:38:17;;;;;;;;;;;;;;;;;;7594617;23;19912;-78
2023/04/27 15:41:17;;;;;;;;;;;;;;;;;;7594845;23;19931;-77
2023/04/27 15:44:18;;;;;;;;;;;;;;;;;;7594922;23;19982;-77
2023/04/27 15:47:18;;;;;;;;;;;;;;;;;;7595083;23;20349;-77
2023/04/27 15:50:18;;;;;;;;;;;;;;;;;;7595330;23;19904;-81
2023/04/27 15:53:18;;;;;;;;;;;;;;;;;;7594210;23;19905;-81
2023/04/27 15:56:18;;;;;;;;;;;;;;;;;;7596585;23;19999;-82
2023/04/27 15:59:18;;;;;;;;;;;;;;;;;;7598696;23;19905;-80
2023/04/27 16:02:18;;;;;;;;;;;;;;;;;;7596982;23;20353;-81
2023/04/27 16:05:18;;;;;;;;;;;;;;;;;;7596529;23;19912;-81
2023/04/27 16:08:18;;;;;;;;;;;;;;;;;;7594651;23;19900;-81
2023/04/27 16:11:19;;;;;;;;;;;;;;;;;;7594183;23;19907;-81
2023/04/27 16:14:19;;;;;;;;;;;;;;;;;;7557122;23;19948;-80
2023/04/27 16:17:19;;;;;;;;;;;;;;;;;;7558023;23;20326;-81
2023/04/27 16:20:21;;;;;;;;;;;;;;;;;;7559524;23;20001;-81
2023/04/27 16:23:23;;;;;;;;;;;;;;;;;;7557453;23;20337;-81
2023/04/27 16:26:23;;;;;;;;;;;;;;;;;;7557244;23;19901;-81
2023/04/27 16:29:23;;;;;;;;;;;;;;;;;;7558123;23;19901;-81
2023/04/27 16:32:23;;;;;;;;;;;;;;;;;;7558640;23;19902;-81
2023/04/27 16:35:23;;;;;;;;;;;;;;;;;;7559028;23;19913;-81
2023/04/27 16:38:23;;;;;;;;;;;;;;;;;;7557901;23;20237;-81
2023/04/27 16:41:23;;;;;;;;;;;;;;;;;;7558987;23;19905;-77
2023/04/27 16:44:24;;;;;;;;;;;;;;;;;;7558056;23;19905;-77
2023/04/27 16:47:25;;;;;;;;;;;;;;;;;;7558366;23;20496;-77
2023/04/27 16:50:26;;;;;;;;;;;;;;;;;;7556128;23;19916;-78
2023/04/27 16:53:26;;;;;;;;;;;;;;;;;;7559359;23;19984;-77
2023/04/27 16:56:26;;;;;;;;;;;;;;;;;;7558631;23;19905;-77
2023/04/27 16:59:26;;;;;;;;;;;;;;;;;;7559056;23;19901;-82
2023/04/27 17:02:26;;;;;;;;;;;;;;;;;;7558770;23;20360;-77
2023/04/27 17:05:27;;;;;;;;;;;;;;;;;;7555768;23;19905;-77
2023/04/27 17:08:27;;;;;;;;;;;;;;;;;;7557034;23;19901;-77
2023/04/27 17:11:27;;;;;;;;;;;;;;;;;;7556921;23;19902;-77
2023/04/27 17:14:27;;;;;;;;;;;;;;;;;;7555706;23;19920;-77
2023/04/27 17:17:27;;;;;;;;;;;;;;;;;;7556174;23;19988;-77
2023/04/27 17:20:27;;;;;;;;;;;;;;;;;;7557724;23;19907;-78
2023/04/27 17:23:27;;;;;;;;;;;;;;;;;;7558568;23;20416;-77
2023/04/27 17:26:27;;;;;;;;;;;;;;;;;;7559521;23;19901;-78
2023/04/27 17:29:28;;;;;;;;;;;;;;;;;;7560164;23;19968;-77
2023/04/27 17:32:28;;;;;;;;;;;;;;;;;;7557301;23;19905;-77
2023/04/27 17:35:28;;;;;;;;;;;;;;;;;;7554019;23;19901;-78
2023/04/27 17:38:29;;;;;;;;;;;;;;;;;;7557190;23;19967;-78
2023/04/27 17:41:31;;;;;;;;;;;;;;;;;;7559830;23;20019;-77
2023/04/27 17:44:31;;;;;;;;;;;;;;;;;;7559424;23;20072;-76
2023/04/27 17:47:32;;;;;;;;;;;;;;;;;;7558740;23;19959;-77
2023/04/27 17:50:34;;;;;;;;;;;;;;;;;;7559196;23;19909;-80
2023/04/27 17:53:34;;;;;;;;;;;;;;;;;;7561441;23;19924;-81
2023/04/27 17:56:35;;;;;;;;;;;;;;;;;;7559457;23;20230;-81
2023/04/27 17:59:35;;;;;;;;;;;;;;;;;;7560468;23;19987;-81
2023/04/27 18:02:35;;;;;;;;;;;;;;;;;;7555237;23;19911;-82
2023/04/27 18:05:35;;;;;;;;;;;;;;;;;;7561019;23;19955;-81
2023/04/27 18:08:35;;;;;;;;;;;;;;;;;;7559445;23;20321;-81
2023/04/27 18:11:35;;;;;;;;;;;;;;;;;;7560681;23;19910;-77
2023/04/27 18:14:36;;;;;;;;;;;;;;;;;;7594627;23;19908;-77
2023/04/27 18:17:36;;;;;;;;;;;;;;;;;;7596443;23;19909;-77
2023/04/27 18:20:36;;;;;;;;;;;;;;;;;;7566044;23;20237;-77
2023/04/27 18:23:36;;;;;;;;;;;;;;;;;;7592174;23;19927;-77
2023/04/27 18:26:36;;;;;;;;;;;;;;;;;;7592736;23;19912;-77
2023/04/27 18:29:37;;;;;;;;;;;;;;;;;;7595484;23;20321;-78
2023/04/27 18:32:37;;;;;;;;;;;;;;;;;;7594265;23;19905;-76
2023/04/27 18:35:38;;;;;;;;;;;;;;;;;;7594874;23;19905;-76
2023/04/27 18:38:38;;;;;;;;;;;;;;;;;;7595455;23;19912;-77
2023/04/27 18:41:38;;;;;;;;;;;;;;;;;;7595395;23;19908;-78
2023/04/27 18:44:38;;;;;;;;;;;;;;;;;;7595509;23;19907;-78
2023/04/27 18:47:38;;;;;;;;;;;;;;;;;;7596346;23;20344;-78
2023/04/27 18:50:38;;;;;;;;;;;;;;;;;;7596139;23;19905;-78
2023/04/27 18:53:38;;;;;;;;;;;;;;;;;;7596427;23;19912;-78
2023/04/27 18:56:39;;;;;;;;;;;;;;;;;;7596313;23;19911;-78
2023/04/27 18:59:39;;;;;;;;;;;;;;;;;;7598070;23;20348;-83
2023/04/27 19:02:39;;;;;;;;;;;;;;;;;;7596990;23;19912;-83
2023/04/27 19:05:41;;;;;;;;;;;;;;;;;;7597400;23;19937;-83
2023/04/27 19:08:41;;;;;;;;;;;;;;;;;;7594792;23;19943;-82
2023/04/27 19:11:41;;;;;;;;;;;;;;;;;;7570510;23;19984;-83
2023/04/27 19:14:41;;;;;;;;;;;;;;;;;;7597517;23;19944;-81
2023/04/27 19:17:41;;;;;;;;;;;;;;;;;;7597716;23;19913;-82
2023/04/27 19:20:42;;;;;;;;;;;;;;;;;;7596057;23;19977;-78
2023/04/27 19:23:43;;;;;;;;;;;;;;;;;;7597250;23;19905;-79
2023/04/27 19:26:45;;;;;;;;;;;;;;;;;;7596031;23;20216;-76
2023/04/27 19:29:45;;;;;;;;;;;;;;;;;;7596496;23;19909;-77
2023/04/27 19:32:46;;;;;;;;;;;;;;;;;;7569776;23;19911;-77
2023/04/27 19:35:46;;;;;;;;;;;;;;;;;;7596271;23;20292;-76
2023/04/27 19:38:46;;;;;;;;;;;;;;;;;;7595158;23;19947;-76
2023/04/27 19:41:46;;;;;;;;;;;;;;;;;;7596236;23;19908;-77
2023/04/27 19:44:46;;;;;;;;;;;;;;;;;;7595532;23;19940;-78
2023/04/27 19:47:47;;;;;;;;;;;;;;;;;;7596716;23;19940;-78
2023/04/27 19:50:47;;;;;;;;;;;;;;;;;;7595802;23;20416;-78
2023/04/27 19:53:47;;;;;;;;;;;;;;;;;;7571212;23;19909;-78
2023/04/27 19:56:48;;;;;;;;;;;;;;;;;;7596484;23;19905;-78
2023/04/27 19:59:48;;;;;;;;;;;;;;;;;;7596329;23;19901;-78
2023/04/27 20:02:48;;;;;;;;;;;;;;;;;;7594893;23;19924;-78
2023/04/27 20:05:48;;;;;;;;;;;;;;;;;;7596018;23;20322;-78
2023/04/27 20:08:48;;;;;;;;;;;;;;;;;;7595288;23;19905;-77
2023/04/27 20:11:48;;;;;;;;;;;;;;;;;;7595059;23;19901;-78
2023/04/27 20:14:49;;;;;;;;;;;;;;;;;;7594520;23;20333;-78
2023/04/27 20:17:49;;;;;;;;;;;;;;;;;;7594742;23;19963;-78
2023/04/27 20:20:49;;;;;;;;;;;;;;;;;;7593847;23;19912;-78
2023/04/27 20:23:49;;;;;;;;;;;;;;;;;;7597596;23;19905;-77
2023/04/27 20:26:49;;;;;;;;;;;;;;;;;;7595423;23;20348;-78
2023/04/27 20:29:49;;;;;;;;;;;;;;;;;;7596334;23;20452;-82